QFA514 YBBN-YSSY
Flight info
| Callsign | QFA514 |
|---|---|
| Flight time | 1h 8m |
| Altitude | 34000 |
| Route | BN H91 IGDAM H652 TESAT |
| Aircraft | B738/M-SDE2E3FGHIRWXY/LB1 |
Departure
| Time | 2026-04-22 23:41 |
|---|---|
| Airport | Brisbane International Airport (YBBN) |
Arrival
| Time | 2026-04-23 00:49 |
|---|---|
| Airport | Sydney Kingsford Smith International Airport (YSSY) |
| Time | Latitude | Longitude | Altitude | Speed | Heading |
|---|---|---|---|---|---|
| 2026-04-22 23:14 | -27.38534 | 153.12127 | 20 ft | 0 kts | 290° |
| 2026-04-22 23:30 | -27.38537 | 153.12138 | 20 ft | 4 kts | 315° |
| 2026-04-22 23:30 | -27.38546 | 153.12145 | 20 ft | 2 kts | 288° |
| 2026-04-22 23:30 | -27.38544 | 153.12166 | 21 ft | 4 kts | 233° |
| 2026-04-22 23:30 | -27.38530 | 153.12187 | 23 ft | 4 kts | 231° |
| 2026-04-22 23:31 | -27.38511 | 153.12209 | 20 ft | 4 kts | 219° |
| 2026-04-22 23:31 | -27.38493 | 153.12226 | 23 ft | 4 kts | 231° |
| 2026-04-22 23:31 | -27.38483 | 153.12251 | 20 ft | 4 kts | 279° |
| 2026-04-22 23:31 | -27.38491 | 153.12276 | 22 ft | 4 kts | 297° |
| 2026-04-22 23:32 | -27.38495 | 153.12284 | 24 ft | 0 kts | 297° |
| 2026-04-22 23:34 | -27.38495 | 153.12283 | 24 ft | 1 kts | 299° |
| 2026-04-22 23:35 | -27.38465 | 153.12278 | 20 ft | 9 kts | 13° |
| 2026-04-22 23:35 | -27.38432 | 153.12342 | 20 ft | 10 kts | 86° |
| 2026-04-22 23:35 | -27.38441 | 153.12416 | 22 ft | 9 kts | 114° |
| 2026-04-22 23:35 | -27.38456 | 153.12479 | 20 ft | 8 kts | 77° |
| 2026-04-22 23:36 | -27.38414 | 153.12523 | 22 ft | 10 kts | 27° |
| 2026-04-22 23:36 | -27.38323 | 153.12575 | 20 ft | 19 kts | 27° |
| 2026-04-22 23:36 | -27.38180 | 153.12657 | 21 ft | 27 kts | 26° |
| 2026-04-22 23:36 | -27.38038 | 153.12739 | 21 ft | 16 kts | 28° |
| 2026-04-22 23:37 | -27.38000 | 153.12833 | 20 ft | 13 kts | 109° |
| 2026-04-22 23:37 | -27.38036 | 153.12913 | 22 ft | 10 kts | 117° |
| 2026-04-22 23:37 | -27.38057 | 153.12959 | 20 ft | 0 kts | 116° |
| 2026-04-22 23:38 | -27.38057 | 153.12960 | 20 ft | 1 kts | 116° |
| 2026-04-22 23:39 | -27.38077 | 153.13002 | 20 ft | 10 kts | 119° |
| 2026-04-22 23:39 | -27.38124 | 153.13051 | 21 ft | 8 kts | 183° |
| 2026-04-22 23:39 | -27.38140 | 153.13045 | 23 ft | 0 kts | 199° |
| 2026-04-22 23:40 | -27.38269 | 153.12978 | 24 ft | 52 kts | 207° |
| 2026-04-22 23:40 | -27.38780 | 153.12684 | 20 ft | 110 kts | 207° |
| 2026-04-22 23:40 | -27.39587 | 153.12221 | 52 ft | 146 kts | 207° |
| 2026-04-22 23:41 | -27.40458 | 153.11616 | 568 ft | 141 kts | 211° |
| 2026-04-22 23:41 | -27.41275 | 153.11030 | 1106 ft | 142 kts | 207° |
| 2026-04-22 23:41 | -27.42256 | 153.10748 | 1423 ft | 154 kts | 182° |
| 2026-04-22 23:41 | -27.43316 | 153.11076 | 1775 ft | 165 kts | 152° |
| 2026-04-22 23:42 | -27.44300 | 153.11766 | 2244 ft | 169 kts | 151° |
| 2026-04-22 23:42 | -27.45317 | 153.12434 | 2681 ft | 173 kts | 154° |
| 2026-04-22 23:42 | -27.46409 | 153.13111 | 3022 ft | 181 kts | 154° |
| 2026-04-22 23:42 | -27.47583 | 153.13779 | 3448 ft | 199 kts | 155° |
| 2026-04-22 23:43 | -27.48839 | 153.14457 | 4252 ft | 202 kts | 155° |
| 2026-04-22 23:43 | -27.50172 | 153.14889 | 5102 ft | 207 kts | 180° |
| 2026-04-22 23:43 | -27.51637 | 153.14577 | 5853 ft | 226 kts | 190° |
| 2026-04-22 23:43 | -27.53257 | 153.14128 | 6380 ft | 251 kts | 192° |
| 2026-04-22 23:44 | -27.54987 | 153.13615 | 7220 ft | 261 kts | 190° |
| 2026-04-22 23:44 | -27.56770 | 153.13108 | 8185 ft | 268 kts | 195° |
| 2026-04-22 23:44 | -27.58556 | 153.12409 | 9120 ft | 275 kts | 197° |
| 2026-04-22 23:44 | -27.60371 | 153.11669 | 10140 ft | 279 kts | 197° |
| 2026-04-22 23:45 | -27.62253 | 153.10913 | 10734 ft | 299 kts | 195° |
| 2026-04-22 23:45 | -27.64336 | 153.10184 | 10959 ft | 328 kts | 193° |
| 2026-04-22 23:45 | -27.66618 | 153.09438 | 11164 ft | 354 kts | 193° |
| 2026-04-22 23:45 | -27.69029 | 153.08650 | 11785 ft | 365 kts | 194° |
| 2026-04-22 23:46 | -27.71488 | 153.07839 | 12569 ft | 371 kts | 193° |
| 2026-04-22 23:46 | -27.73968 | 153.07013 | 13443 ft | 374 kts | 194° |
| 2026-04-22 23:46 | -27.76488 | 153.06171 | 14165 ft | 381 kts | 195° |
| 2026-04-22 23:46 | -27.79031 | 153.05321 | 14957 ft | 382 kts | 195° |
| 2026-04-22 23:47 | -27.81590 | 153.04463 | 15698 ft | 386 kts | 194° |
| 2026-04-22 23:47 | -27.84148 | 153.03482 | 16441 ft | 390 kts | 198° |
| 2026-04-22 23:47 | -27.86694 | 153.02371 | 17183 ft | 393 kts | 199° |
| 2026-04-22 23:47 | -27.89245 | 153.01219 | 17896 ft | 397 kts | 199° |
| 2026-04-22 23:48 | -27.91820 | 153.00058 | 18591 ft | 401 kts | 199° |
| 2026-04-22 23:48 | -27.94426 | 152.98895 | 19181 ft | 404 kts | 200° |
| 2026-04-22 23:48 | -27.97050 | 152.97736 | 19838 ft | 406 kts | 200° |
| 2026-04-22 23:48 | -27.99689 | 152.96578 | 20469 ft | 408 kts | 200° |
| 2026-04-22 23:49 | -28.02346 | 152.95415 | 21059 ft | 411 kts | 201° |
| 2026-04-22 23:49 | -28.05026 | 152.94242 | 21577 ft | 416 kts | 201° |
| 2026-04-22 23:49 | -28.07739 | 152.93054 | 22133 ft | 419 kts | 202° |
| 2026-04-22 23:49 | -28.10466 | 152.91856 | 22727 ft | 422 kts | 202° |
| 2026-04-22 23:50 | -28.13212 | 152.90638 | 23258 ft | 425 kts | 202° |
| 2026-04-22 23:50 | -28.15977 | 152.89407 | 23777 ft | 428 kts | 203° |
| 2026-04-22 23:50 | -28.18758 | 152.88165 | 24205 ft | 431 kts | 203° |
| 2026-04-22 23:50 | -28.21557 | 152.86916 | 24637 ft | 434 kts | 203° |
| 2026-04-22 23:51 | -28.24374 | 152.85659 | 25057 ft | 436 kts | 203° |
| 2026-04-22 23:51 | -28.27204 | 152.84396 | 25468 ft | 439 kts | 203° |
| 2026-04-22 23:51 | -28.30053 | 152.83124 | 25863 ft | 441 kts | 203° |
| 2026-04-22 23:51 | -28.32882 | 152.81861 | 26248 ft | 443 kts | 203° |
| 2026-04-22 23:52 | -28.35759 | 152.80576 | 26621 ft | 446 kts | 203° |
| 2026-04-22 23:52 | -28.38647 | 152.79285 | 27124 ft | 445 kts | 203° |
| 2026-04-22 23:52 | -28.41537 | 152.77992 | 27484 ft | 448 kts | 203° |
| 2026-04-22 23:52 | -28.44453 | 152.76687 | 27744 ft | 452 kts | 203° |
| 2026-04-22 23:53 | -28.47376 | 152.75378 | 28244 ft | 451 kts | 204° |
| 2026-04-22 23:53 | -28.50296 | 152.74070 | 28722 ft | 450 kts | 204° |
| 2026-04-22 23:53 | -28.53206 | 152.72764 | 29238 ft | 449 kts | 204° |
| 2026-04-22 23:53 | -28.56100 | 152.71467 | 29816 ft | 447 kts | 204° |
| 2026-04-22 23:54 | -28.58993 | 152.70168 | 30284 ft | 447 kts | 204° |
| 2026-04-22 23:54 | -28.61890 | 152.68866 | 30729 ft | 446 kts | 204° |
| 2026-04-22 23:54 | -28.64763 | 152.67576 | 31232 ft | 443 kts | 204° |
| 2026-04-22 23:54 | -28.67625 | 152.66289 | 31703 ft | 441 kts | 204° |
| 2026-04-22 23:55 | -28.70478 | 152.65005 | 32116 ft | 441 kts | 204° |
| 2026-04-22 23:55 | -28.73294 | 152.63736 | 32510 ft | 440 kts | 204° |
| 2026-04-22 23:55 | -28.76175 | 152.62438 | 32947 ft | 439 kts | 204° |
| 2026-04-22 23:55 | -28.78977 | 152.61174 | 33397 ft | 437 kts | 204° |
| 2026-04-22 23:56 | -28.81798 | 152.59902 | 33846 ft | 436 kts | 204° |
| 2026-04-22 23:56 | -28.84611 | 152.58626 | 34286 ft | 434 kts | 205° |
| 2026-04-22 23:56 | -28.90077 | 152.55577 | 34321 ft | 437 kts | 210° |
| 2026-04-22 23:57 | -28.95409 | 152.52338 | 34310 ft | 430 kts | 210° |
| 2026-04-22 23:57 | -29.00709 | 152.49130 | 34332 ft | 432 kts | 209° |
| 2026-04-22 23:58 | -29.06035 | 152.45941 | 34348 ft | 433 kts | 209° |
| 2026-04-22 23:58 | -29.11387 | 152.42750 | 34333 ft | 434 kts | 209° |
| 2026-04-22 23:59 | -29.16754 | 152.39549 | 34344 ft | 435 kts | 209° |
| 2026-04-22 23:59 | -29.22116 | 152.36345 | 34333 ft | 434 kts | 209° |
| 2026-04-23 00:00 | -29.30109 | 152.31562 | 34343 ft | 433 kts | 208° |
| 2026-04-23 00:01 | -29.35454 | 152.28360 | 34333 ft | 433 kts | 208° |
| 2026-04-23 00:01 | -29.40792 | 152.25157 | 34329 ft | 432 kts | 208° |
| 2026-04-23 00:02 | -29.46113 | 152.21960 | 34334 ft | 432 kts | 208° |
| 2026-04-23 00:02 | -29.51399 | 152.18780 | 34354 ft | 431 kts | 208° |
| 2026-04-23 00:03 | -29.56713 | 152.15580 | 34342 ft | 431 kts | 208° |
| 2026-04-23 00:03 | -29.62028 | 152.12376 | 34345 ft | 431 kts | 208° |
| 2026-04-23 00:04 | -29.67340 | 152.09169 | 34344 ft | 431 kts | 208° |
| 2026-04-23 00:04 | -29.72925 | 152.06644 | 34341 ft | 434 kts | 194° |
| 2026-04-23 00:05 | -29.78823 | 152.05150 | 34350 ft | 434 kts | 194° |
| 2026-04-23 00:05 | -29.84734 | 152.03667 | 34343 ft | 434 kts | 194° |
| 2026-04-23 00:06 | -29.90628 | 152.02146 | 34342 ft | 434 kts | 194° |
| 2026-04-23 00:06 | -29.96511 | 152.00608 | 34343 ft | 433 kts | 194° |
| 2026-04-23 00:07 | -30.02395 | 151.99066 | 34347 ft | 433 kts | 194° |
| 2026-04-23 00:07 | -30.08272 | 151.97523 | 34356 ft | 433 kts | 194° |
| 2026-04-23 00:08 | -30.14162 | 151.95976 | 34352 ft | 434 kts | 194° |
| 2026-04-23 00:08 | -30.20046 | 151.94429 | 34359 ft | 434 kts | 194° |
| 2026-04-23 00:09 | -30.25935 | 151.92879 | 34359 ft | 434 kts | 194° |
| 2026-04-23 00:09 | -30.31828 | 151.91312 | 34361 ft | 434 kts | 196° |
| 2026-04-23 00:10 | -30.37449 | 151.88968 | 34362 ft | 432 kts | 203° |
| 2026-04-23 00:10 | -30.43008 | 151.86297 | 34360 ft | 432 kts | 204° |
| 2026-04-23 00:11 | -30.48569 | 151.83645 | 34367 ft | 433 kts | 203° |
| 2026-04-23 00:11 | -30.54154 | 151.81020 | 34371 ft | 433 kts | 203° |
| 2026-04-23 00:12 | -30.59743 | 151.78406 | 34366 ft | 433 kts | 203° |
| 2026-04-23 00:12 | -30.65336 | 151.75791 | 34368 ft | 433 kts | 203° |
| 2026-04-23 00:13 | -30.70936 | 151.73169 | 34373 ft | 433 kts | 202° |
| 2026-04-23 00:13 | -30.76520 | 151.70549 | 34364 ft | 432 kts | 202° |
| 2026-04-23 00:14 | -30.82098 | 151.67929 | 34348 ft | 432 kts | 202° |
| 2026-04-23 00:14 | -30.87659 | 151.65314 | 34360 ft | 431 kts | 202° |
| 2026-04-23 00:15 | -30.93203 | 151.62704 | 34363 ft | 429 kts | 202° |
| 2026-04-23 00:15 | -30.98717 | 151.60104 | 34366 ft | 429 kts | 202° |
| 2026-04-23 00:16 | -31.04251 | 151.57492 | 34376 ft | 429 kts | 202° |
| 2026-04-23 00:16 | -31.09777 | 151.54880 | 34374 ft | 429 kts | 202° |
| 2026-04-23 00:17 | -31.15327 | 151.52253 | 34374 ft | 429 kts | 202° |
| 2026-04-23 00:17 | -31.20867 | 151.49628 | 34378 ft | 430 kts | 202° |
| 2026-04-23 00:18 | -31.26375 | 151.47014 | 34387 ft | 430 kts | 202° |
| 2026-04-23 00:18 | -31.31914 | 151.44382 | 34374 ft | 430 kts | 202° |
| 2026-04-23 00:19 | -31.37459 | 151.41745 | 34386 ft | 430 kts | 203° |
| 2026-04-23 00:19 | -31.43030 | 151.39179 | 34387 ft | 430 kts | 201° |
| 2026-04-23 00:20 | -31.47726 | 151.37107 | 34381 ft | 430 kts | 201° |
| 2026-04-23 00:20 | -31.53330 | 151.34629 | 34376 ft | 430 kts | 201° |
| 2026-04-23 00:21 | -31.59842 | 151.31731 | 34383 ft | 430 kts | 201° |
| 2026-04-23 00:21 | -31.64493 | 151.29649 | 34393 ft | 430 kts | 201° |
| 2026-04-23 00:22 | -31.70091 | 151.27138 | 34386 ft | 431 kts | 201° |
| 2026-04-23 00:22 | -31.75699 | 151.24624 | 34387 ft | 431 kts | 201° |
| 2026-04-23 00:23 | -31.81305 | 151.22106 | 34395 ft | 431 kts | 201° |
| 2026-04-23 00:23 | -31.86912 | 151.19584 | 34396 ft | 431 kts | 201° |
| 2026-04-23 00:24 | -31.92520 | 151.17059 | 34390 ft | 431 kts | 201° |
| 2026-04-23 00:24 | -31.98128 | 151.14539 | 34397 ft | 431 kts | 201° |
| 2026-04-23 00:25 | -32.03730 | 151.12029 | 34389 ft | 430 kts | 201° |
| 2026-04-23 00:25 | -32.09330 | 151.09518 | 34267 ft | 431 kts | 201° |
| 2026-04-23 00:25 | -32.12142 | 151.08254 | 33651 ft | 432 kts | 201° |
| 2026-04-23 00:26 | -32.14933 | 151.06998 | 32987 ft | 427 kts | 200° |
| 2026-04-23 00:26 | -32.17707 | 151.05750 | 32305 ft | 425 kts | 200° |
| 2026-04-23 00:26 | -32.20472 | 151.04505 | 31583 ft | 424 kts | 200° |
| 2026-04-23 00:26 | -32.23226 | 151.03263 | 30845 ft | 424 kts | 200° |
| 2026-04-23 00:27 | -32.25980 | 151.02021 | 30047 ft | 423 kts | 200° |
| 2026-04-23 00:27 | -32.28725 | 151.00783 | 29234 ft | 422 kts | 200° |
| 2026-04-23 00:27 | -32.31442 | 150.99556 | 28704 ft | 414 kts | 200° |
| 2026-04-23 00:27 | -32.34117 | 150.98347 | 28147 ft | 408 kts | 200° |
| 2026-04-23 00:28 | -32.36755 | 150.97154 | 27592 ft | 403 kts | 199° |
| 2026-04-23 00:28 | -32.39358 | 150.95976 | 27052 ft | 398 kts | 199° |
| 2026-04-23 00:28 | -32.41959 | 150.94800 | 26533 ft | 404 kts | 199° |
| 2026-04-23 00:28 | -32.44636 | 150.93589 | 25993 ft | 418 kts | 199° |
| 2026-04-23 00:29 | -32.46827 | 150.92661 | 25608 ft | 415 kts | 194° |
| 2026-04-23 00:29 | -32.49575 | 150.92013 | 25387 ft | 396 kts | 187° |
| 2026-04-23 00:29 | -32.52353 | 150.91792 | 24564 ft | 400 kts | 179° |
| 2026-04-23 00:29 | -32.55114 | 150.92050 | 23924 ft | 397 kts | 171° |
| 2026-04-23 00:30 | -32.57825 | 150.92552 | 23286 ft | 392 kts | 170° |
| 2026-04-23 00:30 | -32.60495 | 150.93060 | 22740 ft | 386 kts | 170° |
| 2026-04-23 00:30 | -32.63130 | 150.93555 | 22216 ft | 380 kts | 170° |
| 2026-04-23 00:30 | -32.65719 | 150.94033 | 21716 ft | 374 kts | 170° |
| 2026-04-23 00:31 | -32.68280 | 150.94500 | 21205 ft | 369 kts | 170° |
| 2026-04-23 00:31 | -32.70807 | 150.94957 | 20702 ft | 365 kts | 170° |
| 2026-04-23 00:31 | -32.73308 | 150.95407 | 20213 ft | 362 kts | 170° |
| 2026-04-23 00:31 | -32.75794 | 150.95856 | 19722 ft | 360 kts | 170° |
| 2026-04-23 00:32 | -32.78261 | 150.96302 | 19244 ft | 359 kts | 169° |
| 2026-04-23 00:32 | -32.80751 | 150.96748 | 18825 ft | 366 kts | 170° |
| 2026-04-23 00:32 | -32.83287 | 150.97199 | 18286 ft | 369 kts | 169° |
| 2026-04-23 00:32 | -32.85809 | 150.97646 | 17759 ft | 363 kts | 170° |
| 2026-04-23 00:33 | -32.88291 | 150.98084 | 17242 ft | 357 kts | 170° |
| 2026-04-23 00:33 | -32.90728 | 150.98515 | 16753 ft | 352 kts | 170° |
| 2026-04-23 00:33 | -32.93134 | 150.98941 | 16259 ft | 347 kts | 170° |
| 2026-04-23 00:33 | -32.95473 | 150.99357 | 15782 ft | 343 kts | 170° |
| 2026-04-23 00:34 | -32.97828 | 150.99776 | 15317 ft | 340 kts | 170° |
| 2026-04-23 00:34 | -33.00168 | 151.00193 | 14849 ft | 341 kts | 170° |
| 2026-04-23 00:34 | -33.02518 | 151.00612 | 14374 ft | 342 kts | 170° |
| 2026-04-23 00:34 | -33.04900 | 151.01036 | 13864 ft | 350 kts | 170° |
| 2026-04-23 00:35 | -33.07318 | 151.01468 | 13337 ft | 351 kts | 170° |
| 2026-04-23 00:35 | -33.09727 | 151.01897 | 12792 ft | 348 kts | 170° |
| 2026-04-23 00:35 | -33.12116 | 151.02323 | 12178 ft | 346 kts | 170° |
| 2026-04-23 00:35 | -33.14482 | 151.02746 | 11745 ft | 340 kts | 169° |
| 2026-04-23 00:36 | -33.16775 | 151.03155 | 11601 ft | 325 kts | 169° |
| 2026-04-23 00:36 | -33.18964 | 151.03545 | 11491 ft | 310 kts | 169° |
| 2026-04-23 00:36 | -33.21061 | 151.03918 | 11142 ft | 300 kts | 169° |
| 2026-04-23 00:36 | -33.23100 | 151.04283 | 10820 ft | 291 kts | 169° |
| 2026-04-23 00:37 | -33.25064 | 151.04648 | 10577 ft | 281 kts | 169° |
| 2026-04-23 00:37 | -33.26969 | 151.05012 | 10298 ft | 274 kts | 168° |
| 2026-04-23 00:37 | -33.28803 | 151.05366 | 10004 ft | 267 kts | 168° |
| 2026-04-23 00:37 | -33.30641 | 151.05719 | 9440 ft | 271 kts | 168° |
| 2026-04-23 00:38 | -33.32489 | 151.06076 | 9053 ft | 268 kts | 168° |
| 2026-04-23 00:38 | -33.34309 | 151.06426 | 8745 ft | 261 kts | 168° |
| 2026-04-23 00:38 | -33.36084 | 151.06762 | 8474 ft | 255 kts | 169° |
| 2026-04-23 00:38 | -33.37826 | 151.07099 | 8169 ft | 251 kts | 168° |
| 2026-04-23 00:39 | -33.39530 | 151.07427 | 7889 ft | 246 kts | 168° |
| 2026-04-23 00:39 | -33.41200 | 151.07745 | 7642 ft | 241 kts | 168° |
| 2026-04-23 00:39 | -33.42868 | 151.08069 | 7373 ft | 245 kts | 168° |
| 2026-04-23 00:39 | -33.44573 | 151.08399 | 7141 ft | 251 kts | 168° |
| 2026-04-23 00:40 | -33.46315 | 151.08734 | 6894 ft | 255 kts | 168° |
| 2026-04-23 00:40 | -33.48061 | 151.09069 | 6611 ft | 254 kts | 168° |
| 2026-04-23 00:40 | -33.49804 | 151.09402 | 6328 ft | 253 kts | 168° |
| 2026-04-23 00:40 | -33.51536 | 151.09735 | 6055 ft | 252 kts | 168° |
| 2026-04-23 00:41 | -33.53267 | 151.10068 | 5784 ft | 251 kts | 168° |
| 2026-04-23 00:41 | -33.54999 | 151.10243 | 5523 ft | 251 kts | 180° |
| 2026-04-23 00:41 | -33.56716 | 151.10103 | 5278 ft | 250 kts | 182° |
| 2026-04-23 00:41 | -33.58443 | 151.09920 | 5026 ft | 248 kts | 182° |
| 2026-04-23 00:42 | -33.60164 | 151.09736 | 4790 ft | 246 kts | 182° |
| 2026-04-23 00:42 | -33.61842 | 151.09553 | 4739 ft | 236 kts | 182° |
| 2026-04-23 00:42 | -33.63453 | 151.09489 | 4623 ft | 228 kts | 170° |
| 2026-04-23 00:42 | -33.64973 | 151.09886 | 4526 ft | 220 kts | 165° |
| 2026-04-23 00:43 | -33.66444 | 151.10241 | 4443 ft | 211 kts | 168° |
| 2026-04-23 00:43 | -33.67855 | 151.10581 | 4367 ft | 202 kts | 165° |
| 2026-04-23 00:43 | -33.69180 | 151.10945 | 4299 ft | 189 kts | 166° |
| 2026-04-23 00:43 | -33.70447 | 151.11284 | 4224 ft | 184 kts | 165° |
| 2026-04-23 00:44 | -33.71713 | 151.11619 | 3909 ft | 190 kts | 166° |
| 2026-04-23 00:44 | -33.72990 | 151.11953 | 3680 ft | 186 kts | 166° |
| 2026-04-23 00:44 | -33.74246 | 151.12281 | 3468 ft | 183 kts | 166° |
| 2026-04-23 00:44 | -33.75472 | 151.12601 | 3301 ft | 177 kts | 166° |
| 2026-04-23 00:45 | -33.76662 | 151.12911 | 3270 ft | 176 kts | 166° |
| 2026-04-23 00:45 | -33.77890 | 151.13232 | 3084 ft | 184 kts | 167° |
| 2026-04-23 00:45 | -33.79153 | 151.13561 | 2840 ft | 184 kts | 167° |
| 2026-04-23 00:45 | -33.80393 | 151.13884 | 2583 ft | 180 kts | 167° |
| 2026-04-23 00:46 | -33.81605 | 151.14200 | 2337 ft | 177 kts | 167° |
| 2026-04-23 00:46 | -33.82814 | 151.14516 | 2111 ft | 180 kts | 167° |
| 2026-04-23 00:46 | -33.84040 | 151.14836 | 1864 ft | 181 kts | 166° |
| 2026-04-23 00:46 | -33.85267 | 151.15156 | 1631 ft | 178 kts | 168° |
| 2026-04-23 00:47 | -33.86472 | 151.15470 | 1374 ft | 176 kts | 167° |
| 2026-04-23 00:47 | -33.87634 | 151.15772 | 1170 ft | 171 kts | 165° |
| 2026-04-23 00:47 | -33.88801 | 151.16078 | 945 ft | 162 kts | 167° |
| 2026-04-23 00:47 | -33.89869 | 151.16355 | 708 ft | 154 kts | 165° |
| 2026-04-23 00:48 | -33.90901 | 151.16625 | 535 ft | 151 kts | 166° |
| 2026-04-23 00:48 | -33.91897 | 151.16892 | 321 ft | 142 kts | 167° |
| 2026-04-23 00:48 | -33.92804 | 151.17128 | 157 ft | 124 kts | 167° |
| 2026-04-23 00:48 | -33.93589 | 151.17332 | 36 ft | 109 kts | 167° |
| 2026-04-23 00:49 | -33.94216 | 151.17500 | 29 ft | 59 kts | 166° |
| 2026-04-23 00:49 | -33.94455 | 151.17653 | 29 ft | 26 kts | 143° |
| 2026-04-23 00:49 | -33.94509 | 151.17765 | 29 ft | 11 kts | 59° |
| 2026-04-23 00:49 | -33.94458 | 151.17775 | 29 ft | 8 kts | 345° |
| 2026-04-23 00:50 | -33.94385 | 151.17751 | 29 ft | 15 kts | 345° |
| 2026-04-23 00:50 | -33.94263 | 151.17712 | 28 ft | 21 kts | 345° |
| 2026-04-23 00:50 | -33.94121 | 151.17668 | 28 ft | 21 kts | 346° |
| 2026-04-23 00:50 | -33.93980 | 151.17629 | 28 ft | 20 kts | 347° |
| 2026-04-23 00:51 | -33.93843 | 151.17592 | 28 ft | 20 kts | 348° |
| 2026-04-23 00:51 | -33.93710 | 151.17559 | 28 ft | 19 kts | 348° |
| 2026-04-23 00:51 | -33.93581 | 151.17527 | 28 ft | 19 kts | 348° |
| 2026-04-23 00:51 | -33.93456 | 151.17502 | 29 ft | 18 kts | 1° |
| 2026-04-23 00:52 | -33.93334 | 151.17492 | 29 ft | 17 kts | 347° |
| 2026-04-23 00:52 | -33.93216 | 151.17460 | 29 ft | 18 kts | 347° |
| 2026-04-23 00:52 | -33.93092 | 151.17426 | 29 ft | 17 kts | 348° |
| 2026-04-23 00:52 | -33.92995 | 151.17428 | 29 ft | 11 kts | 49° |
| 2026-04-23 00:53 | -33.92992 | 151.17515 | 29 ft | 11 kts | 100° |
| 2026-04-23 00:53 | -33.93016 | 151.17643 | 29 ft | 21 kts | 105° |
| 2026-04-23 00:53 | -33.93062 | 151.17797 | 29 ft | 11 kts | 113° |
| 2026-04-23 00:53 | -33.93110 | 151.17811 | 29 ft | 6 kts | 192° |
| 2026-04-23 00:54 | -33.93133 | 151.17804 | 29 ft | 1 kts | 193° |
| 2026-04-23 00:54 | -33.93140 | 151.17802 | 29 ft | 1 kts | 193° |
| 2026-04-23 00:54 | -33.93141 | 151.17801 | 29 ft | 0 kts | 193° |